Wild Boar Gully, Santa Catalina Island Weather observations

Data are for 10 minute period ending at time listed.
 Day   Time   Solar   Ave.   Ave.  Ave.  Vector    Max.   Stn.    Total
  of    of     Rad.   Air    Rel.  Wind   Wind     Wind   Baro.  Precip.
Year   Day            Temp.  Hum.  Speed  Dir.     Gust   Pres.         
2016   (PST)   W/m2    F      %     mph   deg.      mph    mb.     in.  
------------------------------------------------------------------------
 124    0:00  999.0   999  999.0   999    999.0   999.0    999.0 999.00  
 124    0:10  999.0   999  999.0   999    999.0   999.0    999.0 999.00  
 124    0:20  999.0   999  999.0   999    999.0   999.0    999.0 999.00  
 124    0:30  999.0   999  999.0   999    999.0   999.0    999.0 999.00  
 124    0:40  999.0   999  999.0   999    999.0   999.0    999.0 999.00  
 124    0:50  999.0   999  999.0   999    999.0   999.0    999.0 999.00  
 124    1:00  999.0   999  999.0   999    999.0   999.0    999.0 999.00  
 124    1:10  999.0   999  999.0   999    999.0   999.0    999.0 999.00  
 124    1:20  999.0   999  999.0   999    999.0   999.0    999.0 999.00  
 124    1:30  999.0   999  999.0   999    999.0   999.0    999.0 999.00  
 124    1:40  999.0   999  999.0   999    999.0   999.0    999.0 999.00  
 124    1:50    0.0    56   79.1     1     59.6     2.4    999.0   0.00  
 124    2:00    0.0    55   78.0     1     20.7     1.2    999.0   0.00  
 124    2:10    0.0    55   80.5     1     80.0     1.8    999.0   0.00  
 124    2:20    0.0    55   82.3     1     85.0     1.8    999.0   0.00  
 124    2:30    0.0    55   83.7     2     67.3     3.0    999.0   0.00  
 124    2:40    0.0    55   84.9     1     79.7     1.8    999.0   0.00  
 124    2:50    0.0    55   84.1     1    258.9     6.6    999.0   0.00  
 124    3:00    0.0    55   84.5     2    274.5     7.2    999.0   0.00  
 124    3:10    0.0    55   84.5     3    241.7     7.8    999.0   0.00  
 124    3:20    0.0    54   87.9     4    274.4     7.2    999.0   0.00  
 124    3:30    0.0    54   89.0     4    256.5     9.0    999.0   0.00  
 124    3:40    0.0    54   90.0     5    275.2     9.0    999.0   0.00  
 124    3:50    0.0    54   91.0     3    185.8     5.4    999.0   0.00  
 124    4:00    0.0    54   90.4     5    178.3     7.2    999.0   0.00  
 124    4:10    0.0    54   90.9     3    145.4     6.0    999.0   0.00  
 124    4:20    0.0    54   89.4     4    111.7     5.4    999.0   0.00  
 124    4:30    0.0    55   86.8     4    113.0     7.2    999.0   0.00  
 124    4:40    0.0    55   86.9     4    105.9     6.0    999.0   0.00  
 124    4:50    0.0    55   87.3     3    111.9     5.4    999.0   0.00  
 124    5:00    0.0    55   86.7     4     97.9     4.8    999.0   0.00  
 124    5:10    3.0    55   84.9     2    353.0     4.2    999.0   0.00  
 124    5:20    8.0    55   83.8     1     85.2     2.4    999.0   0.00  
 124    5:30   14.0    55   82.9     2    101.2     3.0    999.0   0.00  
 124    5:40   21.0    55   81.4     1    117.7     1.8    999.0   0.00  
 124    5:50   50.0    56   80.7     1     96.5     1.8    999.0   0.00  
 124    6:00   73.0    58   78.2     1    201.4     1.8    999.0   0.00  
 124    6:10  110.0    58   75.5     2     68.0     2.4    999.0   0.00  
 124    6:20  114.0    60   73.0     2    104.5     2.4    999.0   0.00  
 124    6:30  165.0    62   70.4     1     48.3     1.8    999.0   0.00  
 124    6:40  195.0    62   68.4     1     99.5     1.8    999.0   0.00  
 124    6:50  224.0    64   66.4     1    262.3     1.2    999.0   0.00  
 124    7:00  241.0    62   70.6     2    229.4     4.2    999.0   0.00  
 124    7:10  282.0    60   77.7     3    235.0     4.2    999.0   0.00  
 124    7:20  311.0    60   80.6     5    237.0    10.2    999.0   0.00  
 124    7:30  338.0    58   86.1     7    267.9    10.8    999.0   0.00  
 124    7:40  368.0    58   87.1     5    233.1     7.8    999.0   0.00  
 124    7:50  395.0    59   86.8     5    235.0     7.8    999.0   0.00  
 124    8:00  423.0    59   87.0     6    239.3    10.2    999.0   0.00  
 124    8:10  452.0    60   86.8     5    216.5     8.4    999.0   0.00  
 124    8:20  480.0    60   85.4     9    270.8    14.3    999.0   0.00  
 124    8:30  504.0    60   84.9    12    268.1    14.9    999.0   0.00  
 124    8:40  530.0    62   79.7     9    269.0    13.1    999.0   0.00  
 124    8:50  555.0    62   79.5    10    272.9    13.1    999.0   0.00  
 124    9:00  578.0    62   78.3    11    270.0    14.9    999.0   0.00  
 124    9:10  601.0    61   81.0    13    270.3    17.3    999.0   0.00  
 124    9:20  623.0    62   79.0    12    268.9    16.7    999.0   0.00  
 124    9:30  644.0    61   80.5    14    266.6    17.9    999.0   0.00  
 124    9:40  665.0    60   83.5    14    268.1    19.1    999.0   0.00  
 124    9:50  684.0    61   82.0    12    265.4    19.7    999.0   0.00  
 124   10:00  703.0    62   79.4     8    258.2    12.5    999.0   0.00  
 124   10:10  719.0    62   80.5     8    259.4    14.9    999.0   0.00  
 124   10:20  733.0    64   76.6     8    258.8    11.9    999.0   0.00  
 124   10:30  749.0    64   74.0     5    249.3     9.0    999.0   0.00  
 124   10:40  746.0    64   74.1     8    248.9    12.5    999.0   0.00  
 124   10:50  759.0    64   74.8     8    261.6    13.7    999.0   0.00  
 124   11:00  780.0    65   71.5     7    245.7    11.9    999.0   0.00  
 124   11:10  745.0    63   76.1     9    250.2    17.3    999.0   0.00  
 124   11:20  798.0    64   73.4    11    260.6    15.5    999.0   0.00  
 124   11:30  798.0    66   71.0    10    274.0    14.9    999.0   0.00  
 124   11:40  795.0    70   63.1     8    256.5    11.9    999.0   0.00  
 124   11:50  801.0    69   64.0     5    214.9     7.8    999.0   0.00  
 124   12:00  787.0    66   69.8     8    238.5    13.7    999.0   0.00  
 124   12:10  757.0    63   77.8     8    236.9    12.5    999.0   0.00  
 124   12:20  691.0    61   80.7    10    238.1    14.3    999.0   0.00  
 124   12:30  742.0    61   82.3    12    242.6    18.5    999.0   0.00  
 124   12:40  706.0    59   84.1    15    263.0    24.5    999.0   0.00  
 124   12:50  648.0    59   85.3    18    268.5    26.2    999.0   0.00  
 124   13:00  656.0    59   85.2    18    266.8    23.9    999.0   0.00  
 124   13:10  703.0    60   82.8    16    270.9    22.7    999.0   0.00  
 124   13:20  634.0    66   67.8    12    270.3    19.7    999.0   0.00  
 124   13:30  681.0    68   63.5    10    271.1    14.9    999.0   0.00  
 124   13:40  643.0    71   55.4    10    268.8    13.7    999.0   0.00  
 124   13:50  729.0    73   50.3     8    265.0    11.9    999.0   0.00  
 124   14:00  598.0    73   54.2     4    209.9     7.2    999.0   0.00  
 124   14:10  601.0    75   50.7     4    227.8     8.4    999.0   0.00  
 124   14:20  620.0    75   48.0     4    212.3     9.0    999.0   0.00  
 124   14:30  545.0    69   62.4     7    236.5    13.7    999.0   0.00  
 124   14:40  501.0    67   68.1     9    264.7    13.7    999.0   0.00  
 124   14:50  464.0    68   65.1     8    270.2    15.5    999.0   0.00  
 124   15:00  507.0    63   75.0    16    276.2    24.5    999.0   0.00  
 124   15:10  521.0    61   79.7    18    266.8    23.9    999.0   0.00  
 124   15:20  485.0    62   79.4    18    266.4    24.5    999.0   0.00  
 124   15:30  494.0    64   74.3    13    275.9    25.6    999.0   0.00  
 124   15:40  553.0    60   82.0    20    267.6    27.4    999.0   0.00  
 124   15:50  423.0    59   85.2    20    265.0    25.6    999.0   0.00  
 124   16:00  324.0    58   86.6    18    269.5    23.9    999.0   0.00  
 124   16:10  251.0    57   88.2    17    269.5    22.7    999.0   0.00  
 124   16:20  168.0    57   88.1    16    277.0    23.3    999.0   0.00  
 124   16:30  139.0    56   89.3    16    285.1    23.9    999.0   0.00  
 124   16:40  141.0    56   89.5    15    277.7    22.1    999.0   0.00  
 124   16:50  200.0    56   89.1    16    271.8    22.1    999.0   0.00  
 124   17:00  221.0    57   86.6    14    270.4    19.1    999.0   0.00  
 124   17:10  247.0    58   85.9    13    266.6    19.7    999.0   0.00  
 124   17:20  239.0    58   85.0    13    267.8    17.3    999.0   0.00  
 124   17:30  144.0    58   84.4    12    272.6    20.3    999.0   0.00  
 124   17:40   79.0    57   84.8    14    275.8    20.9    999.0   0.00  
 124   17:50   40.0    56   87.8    14    272.6    20.3    999.0   0.00  
 124   18:00   34.0    56   89.2    14    280.2    20.3    999.0   0.00  
 124   18:10   34.0    56   87.9    10    276.0    17.3    999.0   0.00  
 124   18:20   26.0    56   86.4     5    335.0    10.8    999.0   0.00  
 124   18:30   15.0    56   87.5     9    263.6    17.9    999.0   0.00  
 124   18:40    7.0    56   88.6    12    263.7    17.9    999.0   0.00  
 124   18:50    1.0    55   88.6     6    250.4    10.8    999.0   0.00  
 124   19:00    0.0    55   88.2     4    154.6     7.8    999.0   0.00  
 124   19:10    0.0    55   87.3     3    145.3     6.6    999.0   0.00  
 124   19:20    0.0    56   84.1     4     78.2     7.2    999.0   0.00  
 124   19:30    0.0    58   77.3     4    120.1     7.2    999.0   0.00  
 124   19:40    0.0    57   80.2     4    130.7     6.0    999.0   0.00  
 124   19:50    0.0    57   79.3     3    109.4     5.4    999.0   0.00  
 124   20:00    0.0    57   75.5     2     95.3     3.6    999.0   0.00  
 124   20:10    0.0    58   68.3     2    124.8     4.2    999.0   0.00  
 124   20:20    0.0    57   72.3     2    105.4     4.8    999.0   0.00  
 124   20:30    0.0    58   68.7     3    184.1     5.4    999.0   0.00  
 124   20:40    0.0    57   74.9     3    104.6     5.4    999.0   0.00  
 124   20:50    0.0    58   77.8     5    115.1     7.2    999.0   0.00  
 124   21:00    0.0    56   80.3     4     66.4     6.0    999.0   0.00  
 124   21:10    0.0    56   84.0     5     86.8     6.6    999.0   0.00  
 124   21:20    0.0    56   85.6     5     86.7     6.6    999.0   0.00  
 124   21:30    0.0    56   87.0     5    106.2     6.0    999.0   0.00  
 124   21:40    0.0    55   87.9     2    101.4     5.4    999.0   0.00  
 124   21:50    0.0    55   88.9     6     88.1     6.6    999.0   0.00  
 124   22:00    0.0    55   89.9     5    113.4     6.6    999.0   0.00  
 124   22:10    0.0    55   90.0     3     97.3     4.2    999.0   0.00  
 124   22:20    0.0    54   90.3     2    107.8     4.2    999.0   0.00  
 124   22:30    0.0    54   90.8     3    100.1     4.8    999.0   0.00  
 124   22:40    0.0    54   90.9     2     90.7     3.6    999.0   0.00  
 124   22:50    0.0    54   91.1     2    211.5     3.6    999.0   0.00  
 124   23:00    0.0    53   90.8     1    297.6     4.8    999.0   0.00  
 124   23:10    0.0    54   91.0     2    274.8     4.8    999.0   0.00  
 124   23:20    0.0    54   91.0     3    261.2     4.2    999.0   0.00  
 124   23:30    0.0    54   91.3     3    281.9     5.4    999.0   0.00  
 124   23:40    0.0    53   92.2     3    267.6     5.4    999.0   0.00  

Return to Wild Boar Gully graphs page.


Western Regional Climate Center,wrcc@dri.edu